Time;durP1;ratioP1;P1;durP2;ratioP2;P2;SDS_P1;SDS_P2;PMS_P1;PMS_P2;Temp;Humidity;BMP_temperature;BMP_pressure;BME280_temperature;BME280_humidity;BME280_pressure;Samples;Min_cycle;Max_cycle;Signal;HPM_P1;HPM_P2
2022/03/30 00:00:58;;;;;;;21.40;7.30;;;;;;;13.86;48.62;94318.69;4375655;32;20184;-62
2022/03/30 00:03:23;;;;;;;22.67;7.47;;;;;;;13.77;49.11;94310.81;4373408;32;20215;-64
2022/03/30 00:05:48;;;;;;;33.13;6.67;;;;;;;13.79;49.36;94312.38;4390568;32;20203;-62
2022/03/30 00:08:14;;;;;;;21.80;6.87;;;;;;;13.77;49.18;94318.81;4379300;32;20226;-62
2022/03/30 00:10:40;;;;;;;17.73;7.07;;;;;;;13.66;49.58;94308.97;4392023;32;20176;-62
2022/03/30 00:13:05;;;;;;;19.00;6.80;;;;;;;13.56;50.09;94304.09;4378614;32;20219;-62
2022/03/30 00:15:31;;;;;;;13.57;6.00;;;;;;;13.56;49.85;94301.44;4392159;32;20251;-62
2022/03/30 00:17:57;;;;;;;18.97;6.83;;;;;;;13.71;49.12;94298.88;4381319;32;20184;-62
2022/03/30 00:20:22;;;;;;;20.13;6.13;;;;;;;13.77;48.91;94302.84;4380318;32;20194;-62
2022/03/30 00:22:48;;;;;;;17.77;6.20;;;;;;;13.76;49.00;94297.84;4378676;32;20189;-62
2022/03/30 00:25:14;;;;;;;18.17;6.90;;;;;;;13.62;49.80;94292.87;4379085;32;20256;-62
2022/03/30 00:27:46;;;;;;;16.90;6.40;;;;;;;13.59;49.60;94282.13;4379491;32;20194;-61
2022/03/30 00:30:15;;;;;;;15.43;6.47;;;;;;;13.61;49.62;94283.34;4387747;32;20185;-62
2022/03/30 00:32:41;;;;;;;18.43;6.93;;;;;;;13.60;49.75;94281.78;4378340;32;20203;-62
2022/03/30 00:35:08;;;;;;;22.50;7.13;;;;;;;13.63;49.68;94278.44;4393077;32;20244;-62
2022/03/30 00:37:34;;;;;;;19.37;7.20;;;;;;;13.58;49.75;94272.56;4380776;32;20180;-62
2022/03/30 00:39:59;;;;;;;19.50;7.10;;;;;;;13.61;49.60;94275.34;4392133;32;20180;-61
2022/03/30 00:42:25;;;;;;;17.10;6.83;;;;;;;13.57;49.71;94269.13;4378140;32;20224;-62
2022/03/30 00:44:51;;;;;;;24.87;7.60;;;;;;;13.47;50.06;94269.63;4394014;32;20176;-62
2022/03/30 00:47:23;;;;;;;11.67;7.13;;;;;;;13.46;50.08;94267.28;4378724;32;20200;-61
2022/03/30 00:49:50;;;;;;;22.73;7.20;;;;;;;13.31;50.42;94266.06;4393200;32;20180;-62
2022/03/30 00:52:18;;;;;;;23.83;6.73;;;;;;;13.29;50.45;94263.78;4378654;32;20181;-62
2022/03/30 00:54:47;;;;;;;21.57;6.67;;;;;;;13.17;50.73;94260.34;4379050;32;20264;-62
2022/03/30 00:57:14;;;;;;;19.23;7.27;;;;;;;13.09;50.67;94268.06;4378443;32;20177;-62
2022/03/30 00:59:41;;;;;;;19.77;6.63;;;;;;;13.21;50.65;94253.25;4376925;32;20176;-62
2022/03/30 01:02:07;;;;;;;20.90;7.50;;;;;;;13.13;50.46;94257.53;4392480;32;20221;-62
2022/03/30 01:04:33;;;;;;;25.47;7.33;;;;;;;13.06;50.65;94255.44;4391953;32;20199;-63
2022/03/30 01:06:59;;;;;;;28.90;7.80;;;;;;;13.03;50.89;94256.13;4391302;32;20185;-62
2022/03/30 01:09:25;;;;;;;18.77;6.37;;;;;;;13.05;50.50;94264.56;4390479;32;20298;-62
2022/03/30 01:11:53;;;;;;;20.47;7.07;;;;;;;13.11;50.72;94258.97;4394031;32;20195;-62
2022/03/30 01:14:19;;;;;;;24.67;7.80;;;;;;;13.17;50.38;94252.34;4378685;32;20255;-62
2022/03/30 01:16:46;;;;;;;19.93;7.20;;;;;;;13.11;50.35;94256.31;4378285;32;20189;-62
2022/03/30 01:19:11;;;;;;;19.37;7.43;;;;;;;12.73;51.29;94252.13;4375646;32;20308;-61
2022/03/30 01:21:39;;;;;;;18.70;8.07;;;;;;;12.54;51.92;94249.25;4390988;32;20196;-62
2022/03/30 01:24:05;;;;;;;15.73;7.27;;;;;;;12.47;52.30;94254.34;4379070;32;20257;-61
2022/03/30 01:26:31;;;;;;;17.90;6.60;;;;;;;12.54;52.17;94244.69;4377638;32;20184;-62
2022/03/30 01:28:57;;;;;;;18.70;6.77;;;;;;;12.59;52.00;94246.37;4377051;32;20176;-62
2022/03/30 01:34:08;;;;;;;19.03;6.80;;;;;;;12.56;52.09;94241.72;4389475;32;20195;-62
2022/03/30 01:36:38;;;;;;;19.00;7.80;;;;;;;12.51;52.60;94239.25;4391775;32;20184;-62
2022/03/30 01:39:06;;;;;;;14.50;7.17;;;;;;;12.59;52.37;94236.50;4385819;32;20280;-62
2022/03/30 01:41:32;;;;;;;18.93;7.30;;;;;;;12.59;52.37;94236.50;4386520;32;20192;-61
2022/03/30 01:43:59;;;;;;;24.73;8.03;;;;;;;12.59;52.41;94228.53;4377182;32;20188;-62
2022/03/30 01:46:25;;;;;;;19.53;6.87;;;;;;;12.65;52.04;94224.53;4391237;32;20227;-62
2022/03/30 01:48:50;;;;;;;20.93;7.33;;;;;;;12.63;52.42;94220.66;4392844;32;20177;-62
2022/03/30 01:51:16;;;;;;;26.87;7.63;;;;;;;12.65;52.44;94215.78;4377339;32;20184;-62
2022/03/30 01:53:42;;;;;;;27.30;7.53;;;;;;;12.76;51.96;94214.22;4376802;32;20177;-61
2022/03/30 01:56:07;;;;;;;21.77;7.60;;;;;;;12.60;52.40;94216.78;4391639;32;20254;-62
2022/03/30 01:58:32;;;;;;;25.60;7.63;;;;;;;12.59;52.80;94217.88;4376331;32;20243;-61
2022/03/30 02:00:58;;;;;;;22.07;6.97;;;;;;;12.59;52.65;94219.75;4390067;32;20180;-62
2022/03/30 02:03:25;;;;;;;18.40;6.20;;;;;;;12.50;52.99;94211.09;4391160;32;20258;-64
2022/03/30 02:05:51;;;;;;;22.03;7.00;;;;;;;12.59;53.22;94203.81;4378771;32;20222;-62
2022/03/30 02:08:17;;;;;;;17.50;6.70;;;;;;;12.59;53.20;94201.13;4375671;32;20180;-63
2022/03/30 02:10:42;;;;;;;18.23;6.53;;;;;;;12.46;53.84;94197.72;4377466;32;20180;-62
2022/03/30 02:13:07;;;;;;;17.83;7.63;;;;;;;12.23;54.24;94196.59;4377168;32;20219;-62
2022/03/30 02:15:33;;;;;;;25.63;7.77;;;;;;;12.27;54.17;94216.84;4392142;32;20217;-62
2022/03/30 02:17:59;;;;;;;16.83;7.00;;;;;;;12.51;53.66;94205.44;4377818;32;20256;-62
2022/03/30 02:20:25;;;;;;;18.63;6.03;;;;;;;12.52;53.64;94200.91;4377299;32;20184;-62
2022/03/30 02:22:50;;;;;;;25.80;7.20;;;;;;;12.45;54.25;94182.09;4383169;32;20203;-62
2022/03/30 02:25:15;;;;;;;21.07;7.50;;;;;;;12.33;54.71;94172.97;4377066;32;20211;-63
2022/03/30 02:27:41;;;;;;;30.53;7.60;;;;;;;12.23;55.84;94170.78;4375634;32;20194;-62
2022/03/30 02:30:07;;;;;;;16.40;6.30;;;;;;;12.29;55.87;94164.09;4388682;32;20203;-62
2022/03/30 02:32:34;;;;;;;24.23;7.73;;;;;;;12.54;55.39;94177.41;4389393;32;20226;-62
2022/03/30 02:34:59;;;;;;;17.40;6.50;;;;;;;12.51;55.96;94172.75;4391121;32;20206;-62
2022/03/30 02:37:24;;;;;;;29.23;8.60;;;;;;;12.55;56.07;94160.34;4377377;32;20223;-62
2022/03/30 02:39:50;;;;;;;16.43;6.83;;;;;;;12.60;55.69;94155.56;4378572;32;20180;-62
2022/03/30 02:42:15;;;;;;;22.60;7.20;;;;;;;12.48;56.46;94157.44;4377859;32;20189;-62
2022/03/30 02:44:40;;;;;;;17.53;6.70;;;;;;;12.41;56.35;94150.06;4389517;32;20200;-62
2022/03/30 02:47:07;;;;;;;18.83;6.67;;;;;;;12.22;56.43;94147.94;4377402;32;20180;-62
2022/03/30 02:49:33;;;;;;;20.30;7.30;;;;;;;12.19;56.34;94142.50;4377002;32;20177;-62
2022/03/30 02:51:59;;;;;;;21.73;7.53;;;;;;;12.20;56.34;94139.53;4377522;32;20172;-61
2022/03/30 02:54:25;;;;;;;24.17;7.00;;;;;;;12.22;56.17;94137.31;4386191;32;20234;-62
2022/03/30 02:56:50;;;;;;;29.93;7.67;;;;;;;12.19;56.28;94134.53;4385988;32;20222;-62
2022/03/30 02:59:15;;;;;;;19.47;7.10;;;;;;;11.98;57.13;94131.97;4398318;32;20192;-62
2022/03/30 03:01:41;;;;;;;22.73;8.27;;;;;;;11.95;56.97;94130.75;4385771;32;20191;-62
2022/03/30 03:04:06;;;;;;;19.43;7.13;;;;;;;11.82;57.66;94129.19;4390937;32;20184;-61
2022/03/30 03:06:32;;;;;;;18.83;7.20;;;;;;;11.73;58.22;94117.84;4389266;32;20179;-61
2022/03/30 03:08:57;;;;;;;24.53;7.67;;;;;;;11.53;58.78;94111.50;4390603;32;20251;-61
2022/03/30 03:11:24;;;;;;;17.03;6.67;;;;;;;11.56;58.70;94110.06;4378177;32;20208;-61
2022/03/30 03:13:50;;;;;;;16.60;6.57;;;;;;;11.46;59.16;94113.91;4390261;32;20207;-61
2022/03/30 03:16:15;;;;;;;19.53;6.73;;;;;;;11.51;59.07;94102.31;4388389;32;20276;-62
2022/03/30 03:18:40;;;;;;;19.83;7.67;;;;;;;11.48;59.43;94098.41;4388862;32;20192;-61
2022/03/30 03:21:08;;;;;;;15.40;7.27;;;;;;;11.40;59.82;94096.66;4388354;32;20219;-62
2022/03/30 03:23:34;;;;;;;17.30;6.90;;;;;;;11.34;60.07;94100.59;4389267;32;20225;-61
2022/03/30 03:25:59;;;;;;;19.97;7.43;;;;;;;11.57;59.55;94099.13;4388647;32;20280;-62
2022/03/30 03:28:25;;;;;;;22.03;7.33;;;;;;;11.71;59.13;94102.22;4386314;32;20231;-61
2022/03/30 03:30:50;;;;;;;21.03;7.90;;;;;;;11.60;59.43;94101.13;4380261;32;20250;-61
2022/03/30 03:33:17;;;;;;;21.13;6.67;;;;;;;11.51;59.72;94103.09;4388666;32;20211;-61
2022/03/30 03:35:42;;;;;;;19.07;7.77;;;;;;;11.49;59.90;94086.69;4400600;32;20176;-61
2022/03/30 03:38:08;;;;;;;17.70;7.53;;;;;;;11.30;60.51;94087.22;4389127;32;20315;-61
2022/03/30 03:40:34;;;;;;;19.80;7.03;;;;;;;11.40;60.31;94080.72;4390808;32;20226;-61
2022/03/30 03:43:00;;;;;;;18.07;7.33;;;;;;;11.52;59.98;94078.06;4390638;32;20208;-61
2022/03/30 03:45:26;;;;;;;17.97;7.27;;;;;;;11.67;59.36;94074.00;4388305;32;20224;-61
2022/03/30 03:47:51;;;;;;;17.43;9.03;;;;;;;11.82;59.09;94075.28;4392452;32;20347;-61
2022/03/30 03:50:17;;;;;;;20.23;7.57;;;;;;;11.58;59.58;94074.09;4389212;32;20226;-61
2022/03/30 03:52:42;;;;;;;17.97;7.23;;;;;;;11.35;60.48;94068.41;4391026;32;20223;-61
2022/03/30 03:55:09;;;;;;;18.40;8.40;;;;;;;11.54;60.08;94062.59;4391070;32;20187;-61
2022/03/30 03:57:38;;;;;;;29.00;7.70;;;;;;;11.60;59.87;94063.16;4390279;32;20215;-61
2022/03/30 04:00:04;;;;;;;18.70;7.43;;;;;;;11.75;59.33;94053.75;4388985;32;20280;-61
2022/03/30 04:02:31;;;;;;;22.73;7.73;;;;;;;11.68;59.40;94055.06;4389598;32;20188;-62
2022/03/30 04:04:56;;;;;;;17.73;6.37;;;;;;;11.59;59.65;94050.97;4388875;32;20271;-62
2022/03/30 04:07:22;;;;;;;20.90;6.97;;;;;;;11.80;58.82;94049.03;4389813;32;20184;-61
2022/03/30 04:09:47;;;;;;;13.97;6.67;;;;;;;11.88;58.13;94039.38;4400426;32;20219;-61
2022/03/30 04:12:12;;;;;;;17.50;6.93;;;;;;;11.86;57.99;94037.06;4387667;32;20172;-61
2022/03/30 04:14:38;;;;;;;17.63;7.63;;;;;;;11.90;58.02;94037.16;4391367;32;20242;-61
2022/03/30 04:17:04;;;;;;;23.03;8.57;;;;;;;11.93;57.37;94031.19;4387272;32;20176;-60
2022/03/30 04:19:30;;;;;;;20.70;7.37;;;;;;;11.98;56.99;94037.06;4390506;32;20252;-61
2022/03/30 04:22:02;;;;;;;23.53;7.47;;;;;;;11.96;56.84;94035.84;4387286;32;20207;-61
2022/03/30 04:24:28;;;;;;;20.57;6.43;;;;;;;11.97;56.77;94030.19;4387292;32;20271;-61
2022/03/30 04:26:53;;;;;;;19.43;6.60;;;;;;;11.83;56.77;94029.00;4383170;32;20234;-61
2022/03/30 04:29:20;;;;;;;18.53;6.37;;;;;;;11.88;56.57;94031.41;4390198;32;20172;-61
2022/03/30 04:31:45;;;;;;;22.97;7.70;;;;;;;11.88;56.29;94031.41;4332712;32;20181;-61
2022/03/30 04:34:11;;;;;;;20.20;7.53;;;;;;;11.90;56.27;94026.53;4345861;32;20188;-61
2022/03/30 04:36:37;;;;;;;24.73;7.00;;;;;;;11.97;56.01;94032.09;4376584;32;20176;-61
2022/03/30 04:39:03;;;;;;;15.30;6.90;;;;;;;11.98;55.84;94025.66;4390249;32;20210;-61
2022/03/30 04:41:29;;;;;;;20.93;6.93;;;;;;;11.95;55.64;94031.63;4355603;32;20176;-61
2022/03/30 04:43:54;;;;;;;16.70;6.47;;;;;;;11.91;55.75;94025.44;4389075;32;20232;-64
2022/03/30 04:46:22;;;;;;;15.17;6.47;;;;;;;11.88;55.86;94034.84;4386802;32;20180;-61
2022/03/30 04:48:49;;;;;;;23.07;7.50;;;;;;;11.92;55.85;94033.06;4364354;32;20250;-61
2022/03/30 04:51:16;;;;;;;20.03;7.33;;;;;;;11.88;56.09;94026.09;4380349;32;20338;-61
2022/03/30 04:53:42;;;;;;;18.10;7.23;;;;;;;11.96;55.94;94030.53;4373780;32;20224;-61
2022/03/30 04:56:10;;;;;;;17.10;6.97;;;;;;;11.94;55.74;94030.09;4357549;32;20222;-62
2022/03/30 04:58:35;;;;;;;16.80;6.20;;;;;;;12.05;55.27;94026.63;4382005;32;20176;-61
2022/03/30 05:01:02;;;;;;;16.00;6.43;;;;;;;12.01;55.35;94035.63;4372570;32;20204;-60
2022/03/30 05:03:27;;;;;;;21.80;7.93;;;;;;;12.00;55.40;94034.84;4373122;32;20200;-61
2022/03/30 05:05:53;;;;;;;16.53;6.20;;;;;;;12.03;55.11;94030.75;4380255;32;20259;-60
2022/03/30 05:08:20;;;;;;;21.17;6.27;;;;;;;12.11;55.05;94032.50;4382253;32;20199;-61
2022/03/30 05:10:50;;;;;;;30.10;8.57;;;;;;;12.03;55.00;94030.75;4393341;32;20277;-61
2022/03/30 05:13:16;;;;;;;20.10;7.13;;;;;;;12.06;55.06;94027.41;4362746;32;20268;-61
2022/03/30 05:15:43;;;;;;;20.13;8.13;;;;;;;12.19;54.68;94025.53;4355809;32;20218;-61
2022/03/30 05:18:11;;;;;;;23.73;6.73;;;;;;;12.27;54.40;94025.37;4373441;32;20192;-61
2022/03/30 05:20:37;;;;;;;27.17;7.03;;;;;;;12.28;54.15;94034.13;4380646;32;20193;-61
2022/03/30 05:23:03;;;;;;;21.83;6.90;;;;;;;12.15;54.59;94025.41;4362975;32;20255;-61
2022/03/30 05:25:33;;;;;;;17.77;6.70;;;;;;;12.21;54.52;94034.72;4387697;32;20193;-60
2022/03/30 05:27:58;;;;;;;15.33;6.50;;;;;;;12.31;54.11;94038.78;4391602;32;20192;-60
2022/03/30 05:30:27;;;;;;;16.17;6.50;;;;;;;12.27;54.48;94030.69;4368476;32;20211;-61
2022/03/30 05:32:56;;;;;;;16.97;7.00;;;;;;;12.26;54.87;94033.72;4349353;32;20187;-61
2022/03/30 05:35:22;;;;;;;14.40;6.97;;;;;;;12.15;55.06;94029.97;4359643;32;20258;-61
2022/03/30 05:37:49;;;;;;;23.43;6.50;;;;;;;12.26;54.85;94029.16;4388466;32;20184;-61
2022/03/30 05:40:16;;;;;;;18.63;7.73;;;;;;;12.26;54.91;94031.06;4383383;32;27848;-61
2022/03/30 05:42:47;;;;;;;17.90;6.50;;;;;;;12.21;54.84;94028.62;4388693;32;20192;-61
2022/03/30 05:45:13;;;;;;;22.60;8.30;;;;;;;12.34;54.60;94017.63;4352949;32;20268;-61
2022/03/30 05:47:38;;;;;;;31.17;8.30;;;;;;;12.27;55.26;94028.03;4386990;32;20230;-61
2022/03/30 05:50:07;;;;;;;16.43;7.40;;;;;;;12.42;54.70;94028.47;4356856;32;20177;-61
2022/03/30 05:52:33;;;;;;;25.63;7.77;;;;;;;12.10;55.77;94033.63;4398799;32;20185;-62
2022/03/30 05:54:59;;;;;;;25.77;7.60;;;;;;;12.24;55.42;94031.41;4388837;32;20185;-61
2022/03/30 05:57:28;;;;;;;19.00;7.17;;;;;;;12.19;55.64;94033.50;4386443;32;20196;-61
2022/03/30 05:59:58;;;;;;;20.33;7.43;;;;;;;12.35;55.21;94035.13;4369011;32;20250;-61
2022/03/30 06:02:23;;;;;;;30.97;8.13;;;;;;;12.28;55.30;94036.78;4361268;32;20238;-61
2022/03/30 06:04:53;;;;;;;18.57;7.63;;;;;;;12.20;55.81;94038.50;4381681;32;20220;-61
2022/03/30 06:07:20;;;;;;;16.90;7.67;;;;;;;12.24;55.24;94036.72;4371356;32;20606;-61
2022/03/30 06:09:46;;;;;;;20.70;7.60;;;;;;;12.28;55.25;94034.91;4351292;32;20336;-61
2022/03/30 06:12:12;;;;;;;18.30;6.97;;;;;;;12.27;55.19;94033.37;4367505;32;20199;-61
2022/03/30 06:14:38;;;;;;;23.63;8.33;;;;;;;12.38;54.91;94029.16;4384121;32;20177;-61
2022/03/30 06:17:06;;;;;;;20.50;7.67;;;;;;;12.42;55.06;94033.81;4368638;32;20185;-61
2022/03/30 06:19:33;;;;;;;46.83;8.30;;;;;;;12.34;54.62;94027.50;4387716;32;20290;-61
2022/03/30 06:22:01;;;;;;;23.27;8.53;;;;;;;12.32;54.98;94025.16;4388354;32;20207;-60
2022/03/30 06:24:29;;;;;;;25.10;8.03;;;;;;;12.69;57.84;94022.41;4388870;32;20195;-61
2022/03/30 06:26:56;;;;;;;23.53;7.17;;;;;;;13.00;58.59;94027.06;4384085;32;20205;-60
2022/03/30 06:29:21;;;;;;;27.23;7.93;;;;;;;13.17;57.74;94031.31;4380492;32;20192;-61
2022/03/30 06:31:46;;;;;;;22.60;7.70;;;;;;;13.32;56.98;94020.69;4379437;32;20192;-60
2022/03/30 06:34:12;;;;;;;25.60;7.50;;;;;;;13.35;53.34;94022.66;4381598;32;20181;-60
2022/03/30 06:36:39;;;;;;;26.40;8.03;;;;;;;13.33;54.07;94024.13;4387057;32;20207;-60
2022/03/30 06:39:05;;;;;;;19.03;7.07;;;;;;;13.49;53.38;94032.16;4360323;32;20193;-60
2022/03/30 06:41:32;;;;;;;18.17;7.33;;;;;;;13.48;52.54;94023.38;4371589;32;20218;-60
2022/03/30 06:43:59;;;;;;;24.13;7.53;;;;;;;13.58;53.73;94030.84;4363282;32;20207;-60
2022/03/30 06:46:28;;;;;;;23.10;8.50;;;;;;;13.73;54.47;94019.41;4382702;32;20180;-62
2022/03/30 06:48:56;;;;;;;29.13;7.83;;;;;;;13.87;52.00;94023.53;4383172;32;20194;-61
2022/03/30 06:51:21;;;;;;;27.67;7.60;;;;;;;13.91;51.50;94021.75;4389605;32;20233;-62
2022/03/30 06:53:49;;;;;;;24.03;7.37;;;;;;;13.67;50.66;94020.03;4348098;32;20279;-62
2022/03/30 06:56:16;;;;;;;23.50;8.57;;;;;;;13.48;51.11;94017.28;4341197;32;20195;-61
2022/03/30 06:58:43;;;;;;;24.33;8.03;;;;;;;13.33;51.86;94030.22;4370365;32;20202;-61
2022/03/30 07:01:12;;;;;;;21.63;7.33;;;;;;;13.25;52.21;94025.06;4386376;32;20200;-62
2022/03/30 07:03:39;;;;;;;24.73;7.40;;;;;;;13.35;52.11;94021.91;4372968;32;20177;-61
2022/03/30 07:06:09;;;;;;;26.57;6.70;;;;;;;13.30;51.93;94024.84;4358606;32;20185;-63
2022/03/30 07:11:18;;;;;;;23.90;7.57;;;;;;;13.29;51.86;94018.72;4364011;32;20223;-61
2022/03/30 07:13:44;;;;;;;19.07;6.87;;;;;;;13.13;52.72;94025.09;4375615;32;20185;-62
2022/03/30 07:16:10;;;;;;;29.57;7.27;;;;;;;13.25;52.61;94023.19;4368001;32;20202;-62
2022/03/30 07:18:35;;;;;;;22.10;7.30;;;;;;;13.22;53.12;94025.75;4350619;32;20187;-61
2022/03/30 07:21:11;;;;;;;26.10;6.53;;;;;;;13.32;53.11;94030.56;4355671;32;20189;-61
2022/03/30 07:23:39;;;;;;;25.10;6.90;;;;;;;13.37;53.16;94017.78;4383382;32;20180;-63
2022/03/30 07:26:07;;;;;;;23.60;6.40;;;;;;;13.46;53.05;94019.50;4359941;32;20184;-61
2022/03/30 07:28:35;;;;;;;20.93;6.00;;;;;;;13.39;53.52;94017.44;4344716;32;20232;-62
2022/03/30 07:31:01;;;;;;;26.70;7.17;;;;;;;13.27;53.97;94012.19;4374301;32;20183;-60
2022/03/30 07:33:29;;;;;;;18.23;6.83;;;;;;;13.31;54.24;94015.69;4352558;32;20185;-60
2022/03/30 07:35:56;;;;;;;26.17;7.10;;;;;;;13.35;54.33;94014.69;4370463;32;20216;-62
2022/03/30 07:38:21;;;;;;;19.10;6.80;;;;;;;13.42;55.00;94014.09;4377154;32;20172;-62
2022/03/30 07:40:48;;;;;;;27.30;7.10;;;;;;;13.57;54.03;94018.66;4322143;32;20173;-60
2022/03/30 07:43:16;;;;;;;23.83;6.37;;;;;;;13.52;54.03;94021.56;4344887;32;20215;-61
2022/03/30 07:45:42;;;;;;;27.07;6.63;;;;;;;13.57;54.44;94004.53;4371940;32;20176;-60
2022/03/30 07:48:09;;;;;;;21.80;6.67;;;;;;;13.58;54.25;94009.53;4378453;32;20250;-60
2022/03/30 07:50:35;;;;;;;12.43;6.13;;;;;;;13.51;54.97;94013.94;4363582;32;20268;-60
2022/03/30 07:53:01;;;;;;;19.13;6.23;;;;;;;13.58;54.49;94009.53;4310459;32;20280;-64
2022/03/30 07:55:28;;;;;;;18.10;6.47;;;;;;;13.80;54.16;94010.81;4363391;32;20184;-62
2022/03/30 07:57:55;;;;;;;25.07;6.87;;;;;;;13.93;54.02;94020.25;4362429;32;20207;-60
2022/03/30 08:00:30;;;;;;;25.63;6.30;;;;;;;14.08;55.16;94011.47;4367422;32;20211;-59
2022/03/30 08:02:56;;;;;;;22.83;5.63;;;;;;;14.31;53.26;94008.16;4339675;32;20225;-61
2022/03/30 08:05:22;;;;;;;17.70;6.00;;;;;;;14.44;53.96;94018.37;4349687;32;20215;-61
2022/03/30 08:07:50;;;;;;;20.67;6.37;;;;;;;14.81;53.11;94007.28;4342089;32;20177;-59
2022/03/30 08:10:21;;;;;;;24.73;6.17;;;;;;;14.94;51.37;94008.72;4358595;32;20181;-60
2022/03/30 08:12:48;;;;;;;19.20;6.73;;;;;;;14.38;52.21;94011.72;4333775;32;20335;-61
2022/03/30 08:15:15;;;;;;;18.93;6.40;;;;;;;14.09;53.08;94009.59;4363221;32;20177;-62
2022/03/30 08:17:43;;;;;;;26.83;7.97;;;;;;;14.03;53.12;94008.28;4331240;32;20203;-61
2022/03/30 08:22:25;;;;;;;16.33;6.40;;;;;;;14.04;53.33;94009.84;4338153;32;20166;-62
2022/03/30 08:22:56;;;;;;;22.77;6.87;;;;;;;14.20;53.68;94002.56;4342814;32;20192;-63
2022/03/30 08:25:23;;;;;;;24.23;6.30;;;;;;;14.14;53.19;94003.97;4334954;32;20181;-62
2022/03/30 08:27:49;;;;;;;20.17;6.07;;;;;;;14.11;53.23;94004.69;4366840;32;20197;-62
2022/03/30 08:30:15;;;;;;;22.13;6.50;;;;;;;14.21;53.40;93998.78;4362760;32;20200;-62
2022/03/30 08:32:42;;;;;;;21.63;6.17;;;;;;;14.17;53.07;94005.94;4350816;32;20200;-60
2022/03/30 08:35:12;;;;;;;24.03;6.40;;;;;;;13.99;53.94;94008.22;4340663;32;20196;-60
2022/03/30 08:37:39;;;;;;;17.77;5.33;;;;;;;14.21;53.96;94000.69;4349595;32;20242;-61
2022/03/30 08:40:06;;;;;;;25.53;6.57;;;;;;;14.17;54.03;94013.94;4350285;32;20265;-61
2022/03/30 08:42:34;;;;;;;16.80;6.07;;;;;;;14.19;54.16;94011.69;4366303;32;20181;-62
2022/03/30 08:45:02;;;;;;;30.00;6.23;;;;;;;14.34;54.76;94005.53;4335920;32;20189;-63
2022/03/30 08:47:27;;;;;;;23.00;6.57;;;;;;;14.35;53.70;94008.97;4333469;32;20197;-64
2022/03/30 08:49:53;;;;;;;19.70;6.23;;;;;;;14.36;53.61;94003.28;4343359;32;20189;-63
2022/03/30 08:52:18;;;;;;;17.47;5.57;;;;;;;14.08;54.17;94010.69;4387422;32;20263;-63
2022/03/30 08:54:46;;;;;;;26.60;6.37;;;;;;;14.08;54.32;94002.69;4397239;32;20184;-62
2022/03/30 08:57:13;;;;;;;21.33;6.20;;;;;;;14.07;54.32;94006.47;4395034;32;20199;-60
2022/03/30 08:59:39;;;;;;;22.60;6.53;;;;;;;14.17;54.76;94008.59;4394932;32;20173;-61
2022/03/30 09:02:07;;;;;;;25.70;6.60;;;;;;;14.25;54.51;94006.88;4379882;32;20192;-62
2022/03/30 09:04:32;;;;;;;25.10;6.10;;;;;;;14.15;54.65;94002.84;4379716;32;20203;-59
2022/03/30 09:06:59;;;;;;;24.87;6.70;;;;;;;14.21;54.74;94001.47;4391176;32;20180;-62
2022/03/30 09:09:31;;;;;;;22.33;7.63;;;;;;;14.12;54.97;93997.44;4385623;32;20181;-61
2022/03/30 09:11:59;;;;;;;20.57;6.50;;;;;;;14.13;54.95;94001.66;4380774;32;20254;-62
2022/03/30 09:14:30;;;;;;;28.37;6.70;;;;;;;14.21;55.19;94000.69;4361357;32;20188;-61
2022/03/30 09:17:01;;;;;;;26.43;6.73;;;;;;;14.29;54.56;93999.72;4375576;32;20307;-60
2022/03/30 09:19:28;;;;;;;31.10;6.50;;;;;;;14.29;54.95;93999.72;4361013;32;20192;-64
2022/03/30 09:21:59;;;;;;;20.00;6.60;;;;;;;14.21;55.09;93995.34;4369007;32;20204;-62
2022/03/30 09:24:28;;;;;;;22.97;6.43;;;;;;;14.28;55.16;93998.94;4358356;32;20192;-62
2022/03/30 09:26:55;;;;;;;27.10;7.00;;;;;;;14.00;55.80;93995.66;4359249;32;20188;-63
2022/03/30 09:29:22;;;;;;;25.90;7.80;;;;;;;13.93;56.16;93992.81;4385761;32;20185;-63
2022/03/30 09:31:49;;;;;;;18.97;6.80;;;;;;;13.94;56.41;93989.81;4361432;32;20204;-62
2022/03/30 09:34:15;;;;;;;17.33;6.13;;;;;;;13.99;56.11;93989.53;4394069;32;20238;-60
2022/03/30 09:36:42;;;;;;;22.13;7.10;;;;;;;13.85;56.72;93991.12;4384697;32;20250;-60
2022/03/30 09:39:26;;;;;;;19.83;6.50;;;;;;;13.89;56.48;94000.75;4404305;32;20204;-63
2022/03/30 09:41:53;;;;;;;21.50;6.67;;;;;;;13.82;57.53;93995.25;4402767;32;20191;-61
2022/03/30 09:44:19;;;;;;;19.70;6.13;;;;;;;13.82;58.61;93991.81;4391064;32;20272;-61
2022/03/30 09:46:55;;;;;;;18.67;5.90;;;;;;;13.86;58.88;93984.69;4379310;32;20179;-59
2022/03/30 09:49:34;;;;;;;16.73;6.23;;;;;;;13.55;60.66;93988.13;4359267;32;20180;-63
2022/03/30 09:52:01;;;;;;;22.30;6.97;;;;;;;13.84;60.51;93994.91;4364649;32;20220;-59
2022/03/30 09:54:47;;;;;;;19.23;6.80;;;;;;;13.85;61.73;93991.91;4373084;32;20255;-59
2022/03/30 09:57:20;;;;;;;16.90;6.47;;;;;;;13.73;63.44;93990.09;4366910;32;20191;-62
2022/03/30 10:00:04;;;;;;;21.47;6.57;;;;;;;13.63;64.55;93985.31;4385636;32;20176;-60
2022/03/30 10:02:32;;;;;;;21.03;6.93;;;;;;;13.65;64.22;93992.94;4364417;32;20181;-61
2022/03/30 10:04:59;;;;;;;19.67;5.67;;;;;;;13.59;65.11;93979.09;4370573;32;20184;-61
2022/03/30 10:07:26;;;;;;;19.67;7.33;;;;;;;13.41;66.99;93978.69;4391284;32;20241;-59
2022/03/30 10:09:52;;;;;;;24.73;7.83;;;;;;;13.50;66.98;93978.53;4342389;32;20204;-60
2022/03/30 10:12:17;;;;;;;20.70;8.20;;;;;;;13.52;67.62;93976.25;4380281;32;20250;-61
2022/03/30 10:14:45;;;;;;;25.70;7.53;;;;;;;13.33;67.96;93968.19;4361391;32;20203;-61
2022/03/30 10:17:13;;;;;;;17.93;7.03;;;;;;;13.23;69.74;93972.16;4381100;32;20181;-60
2022/03/30 10:19:46;;;;;;;19.63;7.90;;;;;;;13.24;70.54;93972.94;4377359;32;20177;-61
2022/03/30 10:22:30;;;;;;;15.77;6.70;;;;;;;13.43;69.54;93964.25;4373763;32;20238;-59
2022/03/30 10:25:22;;;;;;;20.70;7.50;;;;;;;13.30;68.83;93960.91;4373924;32;20180;-63
2022/03/30 10:27:56;;;;;;;21.07;7.03;;;;;;;13.46;68.74;93948.34;4363233;32;20274;-61
2022/03/30 10:30:31;;;;;;;17.93;7.93;;;;;;;13.22;69.17;93953.84;4389859;32;20191;-59
2022/03/30 10:33:01;;;;;;;20.23;6.33;;;;;;;13.15;69.36;93954.44;4367616;32;20278;-61
2022/03/30 10:35:47;;;;;;;17.70;7.13;;;;;;;12.91;70.61;93949.22;4375746;32;20177;-62
2022/03/30 10:38:14;;;;;;;14.93;6.90;;;;;;;13.20;70.39;93946.19;4382221;32;20177;-62
2022/03/30 10:40:40;;;;;;;21.17;5.83;;;;;;;13.32;70.52;93948.00;4389911;32;20180;-62
2022/03/30 10:43:11;;;;;;;20.07;7.30;;;;;;;13.38;69.62;93946.63;4376051;32;20203;-61
2022/03/30 10:45:40;;;;;;;17.43;6.03;;;;;;;13.20;69.83;93948.87;4389870;32;20223;-61
2022/03/30 10:48:19;;;;;;;17.57;6.07;;;;;;;13.12;69.68;93947.09;4400401;32;20228;-61
2022/03/30 10:50:57;;;;;;;15.27;5.87;;;;;;;12.96;69.82;93947.09;4353119;32;20237;-62
2022/03/30 10:53:31;;;;;;;22.53;5.97;;;;;;;13.16;69.56;93945.34;4387201;32;20302;-61
2022/03/30 10:56:09;;;;;;;15.57;6.00;;;;;;;12.84;70.81;93941.84;4387758;32;20181;-61
2022/03/30 10:59:00;;;;;;;16.57;6.53;;;;;;;13.16;70.05;93936.56;4353825;32;20321;-61
2022/03/30 11:01:49;;;;;;;17.50;5.70;;;;;;;13.33;68.44;93938.88;4331105;32;20210;-61
2022/03/30 11:04:18;;;;;;;19.70;5.47;;;;;;;13.24;68.20;93930.31;4367726;32;20185;-61
2022/03/30 11:06:46;;;;;;;19.33;5.73;;;;;;;13.41;68.96;93930.72;4372052;32;20203;-61
2022/03/30 11:09:28;;;;;;;23.60;6.43;;;;;;;13.57;67.50;93922.72;4378484;32;20213;-61
2022/03/30 11:12:12;;;;;;;16.47;5.60;;;;;;;13.53;67.37;93927.19;4398714;32;20180;-61
2022/03/30 11:14:45;;;;;;;20.20;5.60;;;;;;;13.28;68.39;93923.97;4352829;32;20251;-62
2022/03/30 11:17:12;;;;;;;18.57;6.10;;;;;;;13.41;68.41;93921.97;4364215;32;20300;-61
2022/03/30 11:19:47;;;;;;;16.83;5.23;;;;;;;13.55;68.83;93914.28;4395481;32;20164;-62
2022/03/30 11:22:12;;;;;;;21.40;5.97;;;;;;;13.70;67.38;93916.19;4344511;32;20180;-62
2022/03/30 11:24:46;;;;;;;21.80;5.60;;;;;;;13.57;67.72;93906.72;4373000;32;20180;-60
2022/03/30 11:27:11;;;;;;;14.23;5.83;;;;;;;13.71;67.19;93900.97;4379418;32;20210;-61
2022/03/30 11:29:42;;;;;;;24.07;6.37;;;;;;;13.58;68.05;93905.63;4370770;32;20219;-60
2022/03/30 11:32:23;;;;;;;18.40;6.03;;;;;;;13.49;67.26;93905.03;4376181;32;20307;-62